createdAt,value
2023-03-16T00:03:59.723Z,0
2023-03-16T00:08:56.646Z,0
2023-03-16T00:13:56.464Z,0
2023-03-16T00:18:58.005Z,0
2023-03-16T00:23:55.104Z,0
2023-03-16T00:28:54.810Z,0
2023-03-16T00:33:54.620Z,0
2023-03-16T00:38:53.397Z,0
2023-03-16T00:43:42.237Z,0
2023-03-16T00:48:41.505Z,0
2023-03-16T00:53:41.696Z,0
2023-03-16T00:58:38.702Z,0
2023-03-16T01:03:38.906Z,0
2023-03-16T01:08:38.191Z,0
2023-03-16T01:13:39.326Z,0
2023-03-16T01:18:35.799Z,0
2023-03-16T01:23:36.160Z,0
2023-03-16T01:28:35.453Z,0
2023-03-16T01:33:35.477Z,0
2023-03-16T01:38:32.947Z,0
2023-03-16T01:43:33.085Z,0
2023-03-16T01:48:32.642Z,0
2023-03-16T01:53:32.290Z,0
2023-03-16T01:58:31.431Z,0
2023-03-16T01:59:53.951Z,0
2023-03-16T02:04:53.647Z,0
2023-03-16T02:09:52.925Z,0
2023-03-16T02:14:54.390Z,0
2023-03-16T02:19:49.847Z,0
2023-03-16T02:24:50.496Z,0
2023-03-16T02:29:49.219Z,0
2023-03-16T02:35:00.874Z,0
2023-03-16T02:39:57.732Z,0
2023-03-16T02:44:59.708Z,0
2023-03-16T02:49:59.507Z,0
2023-03-16T02:54:56.458Z,0
2023-03-16T02:59:14.449Z,0
2023-03-16T03:04:13.640Z,0
2023-03-16T03:09:13.952Z,0
2023-03-16T03:14:12.824Z,0
2023-03-16T03:19:11.644Z,0
2023-03-16T03:24:11.327Z,0
2023-03-16T03:29:12.769Z,0
2023-03-16T03:34:09.074Z,0
2023-03-16T03:39:08.708Z,0
2023-03-16T03:44:08.335Z,0
2023-03-16T03:49:07.908Z,0
2023-03-16T03:54:05.597Z,0
2023-03-16T03:58:52.238Z,0
2023-03-16T04:03:51.845Z,0
2023-03-16T04:08:51.420Z,0
2023-03-16T04:13:51.091Z,0
2023-03-16T04:18:50.433Z,0
2023-03-16T04:23:50.503Z,0
2023-03-16T04:28:50.390Z,0
2023-03-16T04:33:58.333Z,0
2023-03-16T04:38:57.634Z,0
2023-03-16T04:43:58.340Z,0
2023-03-16T04:48:57.306Z,0
2023-03-16T04:53:57.454Z,0
2023-03-16T04:58:57.342Z,0
2023-03-16T05:04:01.327Z,0
2023-03-16T05:08:55.185Z,0
2023-03-16T05:13:55.154Z,0
2023-03-16T05:18:56.702Z,0
2023-03-16T05:23:53.961Z,0
2023-03-16T05:28:42.468Z,0
2023-03-16T05:33:42.151Z,0
2023-03-16T05:38:44.745Z,0
2023-03-16T05:43:40.145Z,0
2023-03-16T05:48:39.946Z,0
2023-03-16T05:53:39.155Z,0.01
2023-03-16T05:58:39.613Z,0.01
2023-03-16T06:00:00.953Z,0.01
2023-03-16T06:05:00.145Z,0.01
2023-03-16T06:09:59.952Z,0.02
2023-03-16T06:15:00.880Z,0.02
2023-03-16T06:19:57.168Z,0.03
2023-03-16T06:24:57.500Z,0.03
2023-03-16T06:29:56.735Z,0.04
2023-03-16T06:34:56.864Z,0.05
2023-03-16T06:39:54.466Z,0.05
2023-03-16T06:44:54.888Z,0.06
2023-03-16T06:49:53.879Z,0.07
2023-03-16T06:54:54.003Z,0.07
2023-03-16T06:59:00.301Z,0.08
2023-03-16T07:04:01.461Z,0.11
2023-03-16T07:09:00.994Z,0.12
2023-03-16T07:14:01.022Z,0.13
2023-03-16T07:19:02.737Z,0.14
2023-03-16T07:23:59.378Z,0.15
2023-03-16T07:29:00.973Z,0.16
2023-03-16T07:33:59.672Z,0.18
2023-03-16T07:38:59.064Z,0.19
2023-03-16T07:43:59.359Z,0.2
2023-03-16T07:49:00.217Z,0.21
2023-03-16T07:54:00.036Z,0.23
2023-03-16T07:58:57.967Z,0.24
2023-03-16T08:03:58.243Z,0.25
2023-03-16T08:08:57.718Z,0.26
2023-03-16T08:13:57.314Z,0.27
2023-03-16T08:18:57.157Z,0.3
2023-03-16T08:23:56.673Z,0.31
2023-03-16T08:28:57.580Z,0.33
2023-03-16T08:33:56.748Z,0.34
2023-03-16T08:39:12.840Z,0.35
2023-03-16T08:43:54.963Z,0.37
2023-03-16T08:48:55.610Z,0.39
2023-03-16T08:53:55.417Z,0.4
2023-03-16T08:58:55.617Z,0.43
2023-03-16T09:03:53.749Z,0.43
2023-03-16T09:08:53.426Z,0.4
2023-03-16T09:13:55.395Z,0.4
2023-03-16T09:18:54.419Z,0.45
2023-03-16T09:23:50.349Z,0.47
2023-03-16T09:28:50.623Z,0.49
2023-03-16T09:33:49.756Z,0.51
2023-03-16T09:38:50.771Z,0.51
2023-03-16T09:43:57.690Z,0.53
2023-03-16T09:48:57.229Z,0.52
2023-03-16T09:53:56.833Z,0.5
2023-03-16T09:58:55.949Z,0.52
2023-03-16T10:03:56.332Z,0.54
2023-03-16T10:08:56.063Z,0.6
2023-03-16T10:13:56.789Z,0.65
2023-03-16T10:18:54.358Z,0.56
2023-03-16T10:23:54.092Z,0.64
2023-03-16T10:28:54.667Z,0.64
2023-03-16T10:33:41.969Z,0.66
2023-03-16T10:38:42.161Z,0.67
2023-03-16T10:43:41.779Z,0.68
2023-03-16T10:48:40.644Z,0.71
2023-03-16T10:53:40.322Z,0.72
2023-03-16T10:58:39.433Z,0.69
2023-03-16T11:00:01.433Z,0.7
2023-03-16T11:05:13.621Z,0.72
2023-03-16T11:23:03.462Z,0.54
2023-03-16T11:29:40.739Z,0.56
2023-03-16T11:33:58.035Z,0.7
2023-03-16T11:38:58.893Z,0.5
2023-03-16T11:43:57.605Z,0.47
2023-03-16T11:48:58.981Z,0.49
2023-03-16T11:53:55.949Z,0.57
2023-03-16T11:58:55.517Z,0.56
2023-03-16T12:03:57.124Z,0.57
2023-03-16T12:08:54.498Z,0.63
2023-03-16T12:13:53.689Z,0.73
2023-03-16T12:18:54.449Z,0.74
2023-03-16T12:23:42.735Z,0.69
2023-03-16T12:28:42.622Z,0.71
2023-03-16T12:33:42.118Z,0.69
2023-03-16T12:38:42.093Z,0.65
2023-03-16T12:43:41.311Z,0.67
2023-03-16T12:48:40.963Z,0.68
2023-03-16T12:53:40.734Z,0.64
2023-03-16T12:58:40.583Z,0.65
2023-03-16T13:00:01.738Z,0.66
2023-03-16T13:05:01.545Z,0.65
2023-03-16T13:10:00.913Z,0.64
2023-03-16T13:15:02.611Z,0.63
2023-03-16T13:19:58.198Z,0.6
2023-03-16T13:24:58.156Z,0.6
2023-03-16T13:29:57.341Z,0.5
2023-03-16T13:34:57.435Z,0.57
2023-03-16T13:39:54.618Z,0.57
2023-03-16T13:44:54.799Z,0.57
2023-03-16T13:49:54.673Z,0.55
2023-03-16T13:54:54.791Z,0.5
2023-03-16T13:59:00.164Z,0.46
2023-03-16T14:03:59.675Z,0.49
2023-03-16T14:08:59.583Z,0.46
2023-03-16T14:13:59.123Z,0.44
2023-03-16T14:19:00.118Z,0.37
2023-03-16T14:23:56.260Z,0.36
2023-03-16T14:28:56.040Z,0.32
2023-03-16T14:33:55.938Z,0.3
2023-03-16T14:38:55.085Z,0.31
2023-03-16T14:43:54.721Z,0.32
2023-03-16T14:48:55.421Z,0.31
2023-03-16T14:53:54.963Z,0.25
2023-03-16T14:58:54.497Z,0.23
2023-03-16T15:03:55.400Z,0.23
2023-03-16T15:08:54.094Z,0.21
2023-03-16T15:13:56.060Z,0.19
2023-03-16T15:18:51.123Z,0.17
2023-03-16T15:23:51.622Z,0.16
2023-03-16T15:28:49.815Z,0.15
2023-03-16T15:33:49.440Z,0.15
2023-03-16T15:38:57.551Z,0.14
2023-03-16T15:43:56.349Z,0.14
2023-03-16T15:48:56.702Z,0.13
2023-03-16T15:53:55.089Z,0.12
2023-03-16T15:58:55.394Z,0.11
2023-03-16T16:00:16.608Z,0.11
2023-03-16T16:05:15.656Z,0.09
2023-03-16T16:10:15.125Z,0.08
2023-03-16T16:15:15.139Z,0.07
2023-03-16T16:20:14.517Z,0.07
2023-03-16T16:25:13.563Z,0.06
2023-03-16T16:30:12.987Z,0.05
2023-03-16T16:35:13.200Z,0.04
2023-03-16T16:40:12.443Z,0.04
2023-03-16T16:45:11.893Z,0.03
2023-03-16T16:50:12.009Z,0.03
2023-03-16T16:55:10.881Z,0.02
2023-03-16T16:59:31.876Z,0.02
2023-03-16T17:04:33.448Z,0.01
2023-03-16T17:09:29.689Z,0.01
2023-03-16T17:14:29.261Z,0.01
2023-03-16T17:19:28.796Z,0
2023-03-16T17:24:28.125Z,0
2023-03-16T17:29:25.559Z,0
2023-03-16T17:34:25.963Z,0
2023-03-16T17:39:25.289Z,0
2023-03-16T17:44:26.490Z,0
2023-03-16T17:49:23.498Z,0
2023-03-16T17:54:23.052Z,0
2023-03-16T17:59:10.084Z,0
2023-03-16T18:04:09.878Z,0
2023-03-16T18:09:08.612Z,0
2023-03-16T18:14:09.211Z,0
2023-03-16T18:19:08.566Z,0
2023-03-16T18:24:09.161Z,0
2023-03-16T18:29:05.478Z,0
2023-03-16T18:34:05.376Z,0
2023-03-16T18:39:05.619Z,0
2023-03-16T18:44:04.612Z,0
2023-03-16T18:49:02.402Z,0
2023-03-16T18:54:01.619Z,0
2023-03-16T18:58:58.979Z,0
2023-03-16T19:04:01.295Z,0
2023-03-16T19:08:57.698Z,0
2023-03-16T19:13:57.726Z,0
2023-03-16T19:18:59.134Z,0
2023-03-16T19:23:56.770Z,0
2023-03-16T19:28:56.346Z,0
2023-03-16T19:33:57.716Z,0
2023-03-16T19:38:54.650Z,0
2023-03-16T19:43:54.422Z,0
2023-03-16T19:48:54.211Z,0
2023-03-16T19:53:41.731Z,0
2023-03-16T19:58:41.916Z,0
2023-03-16T20:03:41.049Z,0
2023-03-16T20:08:40.273Z,0
2023-03-16T20:13:39.354Z,0
2023-03-16T20:18:39.191Z,0
2023-03-16T20:23:39.285Z,0
2023-03-16T20:28:38.901Z,0
2023-03-16T20:33:39.314Z,0
2023-03-16T20:38:35.414Z,0
2023-03-16T20:43:35.949Z,0
2023-03-16T20:48:35.280Z,0
2023-03-16T20:53:34.952Z,0
2023-03-16T20:58:34.356Z,0
2023-03-16T20:59:55.503Z,0
2023-03-16T21:04:55.388Z,0
2023-03-16T21:09:55.973Z,0
2023-03-16T21:14:52.976Z,0
2023-03-16T21:19:52.435Z,0
2023-03-16T21:24:51.697Z,0
2023-03-16T21:29:51.932Z,0
2023-03-16T21:34:59.499Z,0
2023-03-16T21:40:02.441Z,0
2023-03-16T21:44:59.010Z,0
2023-03-16T21:49:57.478Z,0
2023-03-16T21:54:57.646Z,0
2023-03-16T21:58:54.435Z,0
2023-03-16T22:03:54.800Z,0
2023-03-16T22:08:52.143Z,0
2023-03-16T22:13:51.788Z,0
2023-03-16T22:18:51.534Z,0
2023-03-16T22:23:53.287Z,0
2023-03-16T22:28:59.671Z,0
2023-03-16T22:33:59.066Z,0
2023-03-16T22:38:59.556Z,0
2023-03-16T22:43:57.380Z,0
2023-03-16T22:48:57.166Z,0
2023-03-16T22:53:56.935Z,0
2023-03-16T22:58:55.814Z,0
2023-03-16T23:03:55.868Z,0
2023-03-16T23:08:56.872Z,0
2023-03-16T23:13:57.601Z,0
2023-03-16T23:18:55.547Z,0
2023-03-16T23:24:06.915Z,0
2023-03-16T23:28:55.306Z,0
2023-03-16T23:33:43.341Z,0
2023-03-16T23:38:42.443Z,0
2023-03-16T23:43:42.312Z,0
2023-03-16T23:48:41.481Z,0
2023-03-16T23:53:38.832Z,0
2023-03-16T23:58:38.242Z,0
2023-03-16T23:59:59.649Z,0
